sensor_id;sensor_type;location;lat;lon;timestamp;P1;durP1;ratioP1;P2;durP2;ratioP2
52542;SDS011;38449;52.696;6.186;2023-10-08T00:00:04;18.63;;;7.13;;
52542;SDS011;38449;52.696;6.186;2023-10-08T00:02:51;18.65;;;7.50;;
52542;SDS011;38449;52.696;6.186;2023-10-08T00:05:18;20.02;;;7.85;;
52542;SDS011;38449;52.696;6.186;2023-10-08T00:07:44;16.48;;;7.15;;
52542;SDS011;38449;52.696;6.186;2023-10-08T00:10:11;18.23;;;6.93;;
52542;SDS011;38449;52.696;6.186;2023-10-08T00:12:38;18.88;;;7.30;;
52542;SDS011;38449;52.696;6.186;2023-10-08T00:15:05;16.70;;;7.25;;
52542;SDS011;38449;52.696;6.186;2023-10-08T00:17:36;12.88;;;6.25;;
52542;SDS011;38449;52.696;6.186;2023-10-08T00:20:02;11.82;;;5.30;;
52542;SDS011;38449;52.696;6.186;2023-10-08T00:22:29;11.95;;;5.28;;
52542;SDS011;38449;52.696;6.186;2023-10-08T00:25:01;8.20;;;4.78;;
52542;SDS011;38449;52.696;6.186;2023-10-08T00:27:30;9.90;;;3.97;;
52542;SDS011;38449;52.696;6.186;2023-10-08T00:30:04;7.35;;;3.75;;
52542;SDS011;38449;52.696;6.186;2023-10-08T00:32:39;8.38;;;3.28;;
52542;SDS011;38449;52.696;6.186;2023-10-08T00:35:06;4.97;;;1.92;;
52542;SDS011;38449;52.696;6.186;2023-10-08T00:37:37;3.85;;;1.45;;
52542;SDS011;38449;52.696;6.186;2023-10-08T00:40:04;2.95;;;1.30;;
52542;SDS011;38449;52.696;6.186;2023-10-08T00:42:37;2.95;;;1.27;;
52542;SDS011;38449;52.696;6.186;2023-10-08T00:45:11;1.75;;;0.90;;
52542;SDS011;38449;52.696;6.186;2023-10-08T00:47:40;4.07;;;1.30;;
52542;SDS011;38449;52.696;6.186;2023-10-08T00:50:11;3.33;;;1.40;;
52542;SDS011;38449;52.696;6.186;2023-10-08T00:52:57;1.60;;;1.15;;
52542;SDS011;38449;52.696;6.186;2023-10-08T00:55:27;2.33;;;1.40;;
52542;SDS011;38449;52.696;6.186;2023-10-08T00:57:59;2.70;;;1.27;;
52542;SDS011;38449;52.696;6.186;2023-10-08T01:00:35;2.60;;;1.65;;
52542;SDS011;38449;52.696;6.186;2023-10-08T01:03:05;3.42;;;2.03;;
52542;SDS011;38449;52.696;6.186;2023-10-08T01:05:41;3.50;;;1.90;;
52542;SDS011;38449;52.696;6.186;2023-10-08T01:08:08;3.47;;;1.70;;
52542;SDS011;38449;52.696;6.186;2023-10-08T01:10:38;2.65;;;1.70;;
52542;SDS011;38449;52.696;6.186;2023-10-08T01:13:23;2.13;;;1.40;;
52542;SDS011;38449;52.696;6.186;2023-10-08T01:15:52;2.95;;;1.58;;
52542;SDS011;38449;52.696;6.186;2023-10-08T01:18:21;3.42;;;1.70;;
52542;SDS011;38449;52.696;6.186;2023-10-08T01:20:57;2.65;;;1.50;;
52542;SDS011;38449;52.696;6.186;2023-10-08T01:23:30;3.22;;;1.60;;
52542;SDS011;38449;52.696;6.186;2023-10-08T01:25:57;3.92;;;1.80;;
52542;SDS011;38449;52.696;6.186;2023-10-08T01:28:36;3.38;;;1.50;;
52542;SDS011;38449;52.696;6.186;2023-10-08T01:31:03;2.90;;;1.60;;
52542;SDS011;38449;52.696;6.186;2023-10-08T01:33:32;2.88;;;1.50;;
52542;SDS011;38449;52.696;6.186;2023-10-08T01:36:04;2.80;;;1.45;;
52542;SDS011;38449;52.696;6.186;2023-10-08T01:38:31;3.15;;;1.40;;
52542;SDS011;38449;52.696;6.186;2023-10-08T01:41:00;2.50;;;1.48;;
52542;SDS011;38449;52.696;6.186;2023-10-08T01:43:29;1.88;;;1.40;;
52542;SDS011;38449;52.696;6.186;2023-10-08T01:45:55;2.95;;;1.48;;
52542;SDS011;38449;52.696;6.186;2023-10-08T01:48:22;2.20;;;1.27;;
52542;SDS011;38449;52.696;6.186;2023-10-08T01:53:20;2.72;;;1.60;;
52542;SDS011;38449;52.696;6.186;2023-10-08T01:55:47;4.30;;;1.70;;
52542;SDS011;38449;52.696;6.186;2023-10-08T01:58:17;3.72;;;1.60;;
52542;SDS011;38449;52.696;6.186;2023-10-08T02:00:45;3.10;;;1.60;;
52542;SDS011;38449;52.696;6.186;2023-10-08T02:03:12;2.83;;;1.95;;
52542;SDS011;38449;52.696;6.186;2023-10-08T02:05:44;2.60;;;1.50;;
52542;SDS011;38449;52.696;6.186;2023-10-08T02:08:12;3.20;;;1.30;;
52542;SDS011;38449;52.696;6.186;2023-10-08T02:10:39;3.00;;;1.73;;
52542;SDS011;38449;52.696;6.186;2023-10-08T02:13:08;2.30;;;1.50;;
52542;SDS011;38449;52.696;6.186;2023-10-08T02:15:36;2.83;;;1.48;;
52542;SDS011;38449;52.696;6.186;2023-10-08T02:18:06;2.33;;;1.42;;
52542;SDS011;38449;52.696;6.186;2023-10-08T02:20:32;2.03;;;1.45;;
52542;SDS011;38449;52.696;6.186;2023-10-08T02:22:59;2.92;;;1.90;;
52542;SDS011;38449;52.696;6.186;2023-10-08T02:25:26;3.38;;;1.50;;
52542;SDS011;38449;52.696;6.186;2023-10-08T02:27:53;3.38;;;1.63;;
52542;SDS011;38449;52.696;6.186;2023-10-08T02:30:19;2.38;;;1.58;;
52542;SDS011;38449;52.696;6.186;2023-10-08T02:32:45;2.95;;;1.75;;
52542;SDS011;38449;52.696;6.186;2023-10-08T02:35:12;2.70;;;1.50;;
52542;SDS011;38449;52.696;6.186;2023-10-08T02:37:39;2.35;;;1.30;;
52542;SDS011;38449;52.696;6.186;2023-10-08T02:40:09;2.28;;;1.50;;
52542;SDS011;38449;52.696;6.186;2023-10-08T02:42:47;2.78;;;1.40;;
52542;SDS011;38449;52.696;6.186;2023-10-08T02:45:14;2.10;;;1.20;;
52542;SDS011;38449;52.696;6.186;2023-10-08T02:47:43;2.00;;;1.40;;
52542;SDS011;38449;52.696;6.186;2023-10-08T02:50:12;2.05;;;1.10;;
52542;SDS011;38449;52.696;6.186;2023-10-08T02:52:51;3.03;;;1.30;;
52542;SDS011;38449;52.696;6.186;2023-10-08T02:55:18;1.63;;;1.00;;
52542;SDS011;38449;52.696;6.186;2023-10-08T02:57:50;3.03;;;1.83;;
52542;SDS011;38449;52.696;6.186;2023-10-08T03:00:17;1.90;;;1.10;;
52542;SDS011;38449;52.696;6.186;2023-10-08T03:02:46;3.08;;;1.48;;
52542;SDS011;38449;52.696;6.186;2023-10-08T03:05:12;1.98;;;1.40;;
52542;SDS011;38449;52.696;6.186;2023-10-08T03:07:43;2.47;;;1.30;;
52542;SDS011;38449;52.696;6.186;2023-10-08T03:10:10;2.65;;;1.13;;
52542;SDS011;38449;52.696;6.186;2023-10-08T03:12:45;3.35;;;1.60;;
52542;SDS011;38449;52.696;6.186;2023-10-08T03:15:12;3.00;;;1.30;;
52542;SDS011;38449;52.696;6.186;2023-10-08T03:17:53;2.92;;;1.30;;
52542;SDS011;38449;52.696;6.186;2023-10-08T03:20:23;3.22;;;1.55;;
52542;SDS011;38449;52.696;6.186;2023-10-08T03:23:11;2.13;;;1.63;;
52542;SDS011;38449;52.696;6.186;2023-10-08T03:25:50;2.85;;;1.30;;
52542;SDS011;38449;52.696;6.186;2023-10-08T03:28:37;2.03;;;1.15;;
52542;SDS011;38449;52.696;6.186;2023-10-08T03:31:04;2.67;;;1.38;;
52542;SDS011;38449;52.696;6.186;2023-10-08T03:33:31;2.88;;;1.40;;
52542;SDS011;38449;52.696;6.186;2023-10-08T03:36:00;2.67;;;1.20;;
52542;SDS011;38449;52.696;6.186;2023-10-08T03:38:35;2.58;;;1.30;;
52542;SDS011;38449;52.696;6.186;2023-10-08T03:41:33;3.03;;;1.60;;
52542;SDS011;38449;52.696;6.186;2023-10-08T03:43:59;3.20;;;1.30;;
52542;SDS011;38449;52.696;6.186;2023-10-08T03:46:31;2.17;;;1.58;;
52542;SDS011;38449;52.696;6.186;2023-10-08T03:49:05;2.28;;;1.30;;
52542;SDS011;38449;52.696;6.186;2023-10-08T03:51:51;1.60;;;1.10;;
52542;SDS011;38449;52.696;6.186;2023-10-08T03:54:18;2.40;;;1.40;;
52542;SDS011;38449;52.696;6.186;2023-10-08T03:56:46;2.55;;;1.42;;
52542;SDS011;38449;52.696;6.186;2023-10-08T03:59:14;3.20;;;1.55;;
52542;SDS011;38449;52.696;6.186;2023-10-08T04:01:56;3.25;;;1.40;;
52542;SDS011;38449;52.696;6.186;2023-10-08T04:04:55;3.47;;;2.00;;
52542;SDS011;38449;52.696;6.186;2023-10-08T04:07:25;4.43;;;3.00;;
52542;SDS011;38449;52.696;6.186;2023-10-08T04:10:27;5.13;;;3.80;;
52542;SDS011;38449;52.696;6.186;2023-10-08T04:13:20;5.38;;;3.83;;
52542;SDS011;38449;52.696;6.186;2023-10-08T04:15:46;5.88;;;3.88;;
52542;SDS011;38449;52.696;6.186;2023-10-08T04:18:12;5.07;;;3.42;;
52542;SDS011;38449;52.696;6.186;2023-10-08T04:20:41;3.70;;;3.05;;
52542;SDS011;38449;52.696;6.186;2023-10-08T04:23:26;5.88;;;3.28;;
52542;SDS011;38449;52.696;6.186;2023-10-08T04:25:54;3.83;;;2.90;;
52542;SDS011;38449;52.696;6.186;2023-10-08T04:28:21;5.45;;;2.97;;
52542;SDS011;38449;52.696;6.186;2023-10-08T04:30:48;5.97;;;2.72;;
52542;SDS011;38449;52.696;6.186;2023-10-08T04:33:16;5.28;;;3.20;;
52542;SDS011;38449;52.696;6.186;2023-10-08T04:35:45;4.13;;;2.63;;
52542;SDS011;38449;52.696;6.186;2023-10-08T04:38:15;3.65;;;2.35;;
52542;SDS011;38449;52.696;6.186;2023-10-08T04:40:44;5.28;;;2.45;;
52542;SDS011;38449;52.696;6.186;2023-10-08T04:43:17;4.15;;;2.60;;
52542;SDS011;38449;52.696;6.186;2023-10-08T04:45:51;3.88;;;2.00;;
52542;SDS011;38449;52.696;6.186;2023-10-08T04:48:18;3.72;;;2.20;;
52542;SDS011;38449;52.696;6.186;2023-10-08T04:50:47;5.13;;;2.50;;
52542;SDS011;38449;52.696;6.186;2023-10-08T04:53:27;4.35;;;2.20;;
52542;SDS011;38449;52.696;6.186;2023-10-08T04:55:58;5.30;;;2.38;;
52542;SDS011;38449;52.696;6.186;2023-10-08T04:58:34;2.90;;;2.20;;
52542;SDS011;38449;52.696;6.186;2023-10-08T05:01:06;3.63;;;2.40;;
52542;SDS011;38449;52.696;6.186;2023-10-08T05:04:09;4.15;;;2.60;;
52542;SDS011;38449;52.696;6.186;2023-10-08T05:06:49;4.18;;;2.38;;
52542;SDS011;38449;52.696;6.186;2023-10-08T05:09:16;7.78;;;2.40;;
52542;SDS011;38449;52.696;6.186;2023-10-08T05:11:45;3.50;;;2.70;;
52542;SDS011;38449;52.696;6.186;2023-10-08T05:14:19;4.95;;;2.42;;
52542;SDS011;38449;52.696;6.186;2023-10-08T05:16:59;5.45;;;2.25;;
52542;SDS011;38449;52.696;6.186;2023-10-08T05:19:35;4.47;;;2.65;;
52542;SDS011;38449;52.696;6.186;2023-10-08T05:22:05;2.63;;;1.88;;
52542;SDS011;38449;52.696;6.186;2023-10-08T05:24:47;3.00;;;1.80;;
52542;SDS011;38449;52.696;6.186;2023-10-08T05:27:32;5.10;;;1.80;;
52542;SDS011;38449;52.696;6.186;2023-10-08T05:32:54;2.85;;;1.85;;
52542;SDS011;38449;52.696;6.186;2023-10-08T05:35:50;4.25;;;1.70;;
52542;SDS011;38449;52.696;6.186;2023-10-08T05:38:28;2.75;;;1.80;;
52542;SDS011;38449;52.696;6.186;2023-10-08T05:40:58;4.07;;;1.65;;
52542;SDS011;38449;52.696;6.186;2023-10-08T05:43:26;2.83;;;1.83;;
52542;SDS011;38449;52.696;6.186;2023-10-08T05:46:04;4.07;;;2.17;;
52542;SDS011;38449;52.696;6.186;2023-10-08T05:49:05;3.67;;;1.95;;
52542;SDS011;38449;52.696;6.186;2023-10-08T05:51:32;3.50;;;2.03;;
52542;SDS011;38449;52.696;6.186;2023-10-08T05:56:53;4.30;;;1.88;;
52542;SDS011;38449;52.696;6.186;2023-10-08T05:59:32;3.33;;;2.13;;
52542;SDS011;38449;52.696;6.186;2023-10-08T06:05:01;4.68;;;1.88;;
52542;SDS011;38449;52.696;6.186;2023-10-08T06:07:38;4.22;;;1.88;;
52542;SDS011;38449;52.696;6.186;2023-10-08T06:10:22;4.25;;;2.05;;
52542;SDS011;38449;52.696;6.186;2023-10-08T06:13:13;3.22;;;2.25;;
52542;SDS011;38449;52.696;6.186;2023-10-08T06:15:56;3.80;;;2.05;;
52542;SDS011;38449;52.696;6.186;2023-10-08T06:18:24;5.47;;;2.53;;
52542;SDS011;38449;52.696;6.186;2023-10-08T06:20:56;4.47;;;2.05;;
52542;SDS011;38449;52.696;6.186;2023-10-08T06:23:24;4.38;;;2.60;;
52542;SDS011;38449;52.696;6.186;2023-10-08T06:25:54;6.78;;;2.33;;
52542;SDS011;38449;52.696;6.186;2023-10-08T06:28:40;4.47;;;2.40;;
52542;SDS011;38449;52.696;6.186;2023-10-08T06:31:07;3.55;;;2.60;;
52542;SDS011;38449;52.696;6.186;2023-10-08T06:33:40;3.92;;;2.10;;
52542;SDS011;38449;52.696;6.186;2023-10-08T06:36:07;3.63;;;2.20;;
52542;SDS011;38449;52.696;6.186;2023-10-08T06:38:46;3.75;;;2.40;;
52542;SDS011;38449;52.696;6.186;2023-10-08T06:41:16;4.15;;;2.45;;
52542;SDS011;38449;52.696;6.186;2023-10-08T06:43:47;3.60;;;2.35;;
52542;SDS011;38449;52.696;6.186;2023-10-08T06:46:18;6.18;;;3.15;;
52542;SDS011;38449;52.696;6.186;2023-10-08T06:48:47;6.45;;;2.63;;
52542;SDS011;38449;52.696;6.186;2023-10-08T06:51:15;5.43;;;2.58;;
52542;SDS011;38449;52.696;6.186;2023-10-08T06:53:45;4.65;;;2.80;;
52542;SDS011;38449;52.696;6.186;2023-10-08T06:56:13;6.43;;;2.50;;
52542;SDS011;38449;52.696;6.186;2023-10-08T06:58:44;4.75;;;2.70;;
52542;SDS011;38449;52.696;6.186;2023-10-08T07:01:19;5.15;;;2.50;;
52542;SDS011;38449;52.696;6.186;2023-10-08T07:03:51;4.07;;;2.55;;
52542;SDS011;38449;52.696;6.186;2023-10-08T07:06:18;4.20;;;2.58;;
52542;SDS011;38449;52.696;6.186;2023-10-08T07:09:05;6.38;;;2.08;;
52542;SDS011;38449;52.696;6.186;2023-10-08T07:11:39;4.03;;;2.30;;
52542;SDS011;38449;52.696;6.186;2023-10-08T07:14:10;4.47;;;2.08;;
52542;SDS011;38449;52.696;6.186;2023-10-08T07:16:36;4.32;;;2.40;;
52542;SDS011;38449;52.696;6.186;2023-10-08T07:19:02;4.88;;;1.90;;
52542;SDS011;38449;52.696;6.186;2023-10-08T07:21:41;4.07;;;2.03;;
52542;SDS011;38449;52.696;6.186;2023-10-08T07:24:11;5.03;;;2.20;;
52542;SDS011;38449;52.696;6.186;2023-10-08T07:26:43;4.43;;;2.20;;
52542;SDS011;38449;52.696;6.186;2023-10-08T07:29:14;3.30;;;1.50;;
52542;SDS011;38449;52.696;6.186;2023-10-08T07:31:45;4.50;;;1.70;;
52542;SDS011;38449;52.696;6.186;2023-10-08T07:34:15;5.22;;;2.03;;
52542;SDS011;38449;52.696;6.186;2023-10-08T07:36:44;4.10;;;1.80;;
52542;SDS011;38449;52.696;6.186;2023-10-08T07:39:18;4.88;;;1.95;;
52542;SDS011;38449;52.696;6.186;2023-10-08T07:41:59;6.57;;;2.38;;
52542;SDS011;38449;52.696;6.186;2023-10-08T07:44:26;3.95;;;1.70;;
52542;SDS011;38449;52.696;6.186;2023-10-08T07:46:54;4.88;;;1.80;;
52542;SDS011;38449;52.696;6.186;2023-10-08T07:49:20;4.63;;;1.88;;
52542;SDS011;38449;52.696;6.186;2023-10-08T07:51:49;3.85;;;1.83;;
52542;SDS011;38449;52.696;6.186;2023-10-08T07:54:23;7.95;;;2.78;;
52542;SDS011;38449;52.696;6.186;2023-10-08T07:56:50;5.47;;;1.90;;
52542;SDS011;38449;52.696;6.186;2023-10-08T07:59:34;4.90;;;2.35;;
52542;SDS011;38449;52.696;6.186;2023-10-08T08:02:07;4.50;;;1.80;;
52542;SDS011;38449;52.696;6.186;2023-10-08T08:04:38;3.30;;;1.90;;
52542;SDS011;38449;52.696;6.186;2023-10-08T08:07:06;4.35;;;2.03;;
52542;SDS011;38449;52.696;6.186;2023-10-08T08:09:32;4.18;;;2.13;;
52542;SDS011;38449;52.696;6.186;2023-10-08T08:12:04;3.10;;;1.70;;
52542;SDS011;38449;52.696;6.186;2023-10-08T08:14:37;3.92;;;1.52;;
52542;SDS011;38449;52.696;6.186;2023-10-08T08:17:07;5.53;;;2.05;;
52542;SDS011;38449;52.696;6.186;2023-10-08T08:22:07;4.97;;;2.42;;
52542;SDS011;38449;52.696;6.186;2023-10-08T08:24:40;7.28;;;1.77;;
52542;SDS011;38449;52.696;6.186;2023-10-08T08:27:10;5.90;;;2.20;;
52542;SDS011;38449;52.696;6.186;2023-10-08T08:29:58;7.20;;;2.00;;
52542;SDS011;38449;52.696;6.186;2023-10-08T08:32:36;5.05;;;1.75;;
52542;SDS011;38449;52.696;6.186;2023-10-08T08:35:08;5.95;;;1.85;;
52542;SDS011;38449;52.696;6.186;2023-10-08T08:37:35;6.15;;;1.85;;
52542;SDS011;38449;52.696;6.186;2023-10-08T08:40:04;6.93;;;1.70;;
52542;SDS011;38449;52.696;6.186;2023-10-08T08:42:35;7.82;;;2.10;;
52542;SDS011;38449;52.696;6.186;2023-10-08T08:45:04;4.93;;;1.88;;
52542;SDS011;38449;52.696;6.186;2023-10-08T08:47:35;4.13;;;1.67;;
52542;SDS011;38449;52.696;6.186;2023-10-08T08:50:02;5.93;;;1.95;;
52542;SDS011;38449;52.696;6.186;2023-10-08T08:52:35;5.63;;;1.67;;
52542;SDS011;38449;52.696;6.186;2023-10-08T08:55:05;4.50;;;2.00;;
52542;SDS011;38449;52.696;6.186;2023-10-08T08:57:43;9.25;;;1.92;;
52542;SDS011;38449;52.696;6.186;2023-10-08T09:00:14;5.85;;;2.03;;
52542;SDS011;38449;52.696;6.186;2023-10-08T09:02:43;5.85;;;1.80;;
52542;SDS011;38449;52.696;6.186;2023-10-08T09:05:15;4.50;;;2.40;;
52542;SDS011;38449;52.696;6.186;2023-10-08T09:08:01;5.32;;;1.70;;
52542;SDS011;38449;52.696;6.186;2023-10-08T09:10:36;4.05;;;2.10;;
52542;SDS011;38449;52.696;6.186;2023-10-08T09:13:05;6.28;;;2.40;;
52542;SDS011;38449;52.696;6.186;2023-10-08T09:15:33;5.88;;;1.92;;
52542;SDS011;38449;52.696;6.186;2023-10-08T09:18:00;7.20;;;2.17;;
52542;SDS011;38449;52.696;6.186;2023-10-08T09:20:27;8.93;;;2.55;;
52542;SDS011;38449;52.696;6.186;2023-10-08T09:25:41;6.18;;;2.08;;
52542;SDS011;38449;52.696;6.186;2023-10-08T09:30:39;4.43;;;1.73;;
52542;SDS011;38449;52.696;6.186;2023-10-08T09:33:06;4.35;;;1.60;;
52542;SDS011;38449;52.696;6.186;2023-10-08T09:35:38;6.53;;;1.50;;
52542;SDS011;38449;52.696;6.186;2023-10-08T09:38:07;13.20;;;2.25;;
52542;SDS011;38449;52.696;6.186;2023-10-08T09:40:47;7.22;;;1.90;;
52542;SDS011;38449;52.696;6.186;2023-10-08T09:43:14;5.95;;;1.83;;
52542;SDS011;38449;52.696;6.186;2023-10-08T09:45:43;5.80;;;1.98;;
52542;SDS011;38449;52.696;6.186;2023-10-08T09:48:18;4.88;;;1.45;;
52542;SDS011;38449;52.696;6.186;2023-10-08T09:50:47;5.70;;;1.50;;
52542;SDS011;38449;52.696;6.186;2023-10-08T09:53:15;6.53;;;1.70;;
52542;SDS011;38449;52.696;6.186;2023-10-08T09:55:49;5.55;;;1.92;;
52542;SDS011;38449;52.696;6.186;2023-10-08T09:58:17;6.88;;;1.45;;
52542;SDS011;38449;52.696;6.186;2023-10-08T10:00:43;8.98;;;1.95;;
52542;SDS011;38449;52.696;6.186;2023-10-08T10:03:14;4.63;;;1.55;;
52542;SDS011;38449;52.696;6.186;2023-10-08T10:05:42;7.78;;;1.80;;
52542;SDS011;38449;52.696;6.186;2023-10-08T10:08:10;9.05;;;2.08;;
52542;SDS011;38449;52.696;6.186;2023-10-08T10:10:37;5.05;;;1.50;;
52542;SDS011;38449;52.696;6.186;2023-10-08T10:13:05;6.45;;;1.48;;
52542;SDS011;38449;52.696;6.186;2023-10-08T10:15:38;4.95;;;1.83;;
52542;SDS011;38449;52.696;6.186;2023-10-08T10:20:44;6.80;;;1.80;;
52542;SDS011;38449;52.696;6.186;2023-10-08T10:23:35;6.60;;;1.63;;
52542;SDS011;38449;52.696;6.186;2023-10-08T10:26:03;10.65;;;2.30;;
52542;SDS011;38449;52.696;6.186;2023-10-08T10:28:29;8.70;;;1.92;;
52542;SDS011;38449;52.696;6.186;2023-10-08T10:30:56;8.80;;;1.80;;
52542;SDS011;38449;52.696;6.186;2023-10-08T10:33:30;6.72;;;1.77;;
52542;SDS011;38449;52.696;6.186;2023-10-08T10:36:00;5.25;;;1.77;;
52542;SDS011;38449;52.696;6.186;2023-10-08T10:38:26;4.05;;;1.75;;
52542;SDS011;38449;52.696;6.186;2023-10-08T10:40:55;6.35;;;1.58;;
52542;SDS011;38449;52.696;6.186;2023-10-08T10:43:27;7.05;;;2.10;;
52542;SDS011;38449;52.696;6.186;2023-10-08T10:46:00;6.97;;;1.42;;
52542;SDS011;38449;52.696;6.186;2023-10-08T10:48:45;6.60;;;1.63;;
52542;SDS011;38449;52.696;6.186;2023-10-08T10:51:23;6.13;;;1.77;;
52542;SDS011;38449;52.696;6.186;2023-10-08T10:53:52;9.82;;;1.80;;
52542;SDS011;38449;52.696;6.186;2023-10-08T10:56:37;5.43;;;1.40;;
52542;SDS011;38449;52.696;6.186;2023-10-08T10:59:08;8.30;;;1.73;;
52542;SDS011;38449;52.696;6.186;2023-10-08T11:02:04;4.38;;;1.58;;
52542;SDS011;38449;52.696;6.186;2023-10-08T11:04:34;5.85;;;1.92;;
52542;SDS011;38449;52.696;6.186;2023-10-08T11:07:16;5.65;;;1.70;;
52542;SDS011;38449;52.696;6.186;2023-10-08T11:09:47;7.15;;;2.25;;
52542;SDS011;38449;52.696;6.186;2023-10-08T11:12:14;5.80;;;1.70;;
52542;SDS011;38449;52.696;6.186;2023-10-08T11:14:46;5.13;;;1.40;;
52542;SDS011;38449;52.696;6.186;2023-10-08T11:17:17;7.30;;;1.42;;
52542;SDS011;38449;52.696;6.186;2023-10-08T11:19:50;4.97;;;1.60;;
52542;SDS011;38449;52.696;6.186;2023-10-08T11:22:17;5.78;;;1.60;;
52542;SDS011;38449;52.696;6.186;2023-10-08T11:24:45;8.07;;;1.85;;
52542;SDS011;38449;52.696;6.186;2023-10-08T11:27:18;5.43;;;1.50;;
52542;SDS011;38449;52.696;6.186;2023-10-08T11:30:01;4.78;;;1.50;;
52542;SDS011;38449;52.696;6.186;2023-10-08T11:32:27;10.35;;;2.30;;
52542;SDS011;38449;52.696;6.186;2023-10-08T11:34:57;3.92;;;1.42;;
52542;SDS011;38449;52.696;6.186;2023-10-08T11:37:27;6.65;;;2.00;;
52542;SDS011;38449;52.696;6.186;2023-10-08T11:39:54;4.07;;;1.73;;
52542;SDS011;38449;52.696;6.186;2023-10-08T11:42:24;6.28;;;1.60;;
52542;SDS011;38449;52.696;6.186;2023-10-08T11:44:54;5.18;;;1.60;;
52542;SDS011;38449;52.696;6.186;2023-10-08T11:47:20;6.22;;;1.73;;
52542;SDS011;38449;52.696;6.186;2023-10-08T11:49:47;5.97;;;1.80;;
52542;SDS011;38449;52.696;6.186;2023-10-08T11:52:16;4.82;;;1.55;;
52542;SDS011;38449;52.696;6.186;2023-10-08T11:54:47;4.15;;;1.50;;
52542;SDS011;38449;52.696;6.186;2023-10-08T11:57:14;6.13;;;1.55;;
52542;SDS011;38449;52.696;6.186;2023-10-08T11:59:47;7.00;;;2.03;;
52542;SDS011;38449;52.696;6.186;2023-10-08T12:02:14;6.68;;;1.63;;
52542;SDS011;38449;52.696;6.186;2023-10-08T12:04:42;5.47;;;1.80;;
52542;SDS011;38449;52.696;6.186;2023-10-08T12:07:10;5.35;;;1.70;;
52542;SDS011;38449;52.696;6.186;2023-10-08T12:09:39;5.82;;;1.50;;
52542;SDS011;38449;52.696;6.186;2023-10-08T12:12:06;6.47;;;1.80;;
52542;SDS011;38449;52.696;6.186;2023-10-08T12:14:39;6.22;;;1.70;;
52542;SDS011;38449;52.696;6.186;2023-10-08T12:17:05;6.55;;;1.98;;
52542;SDS011;38449;52.696;6.186;2023-10-08T12:19:37;5.28;;;1.52;;
52542;SDS011;38449;52.696;6.186;2023-10-08T12:22:06;6.50;;;1.58;;
52542;SDS011;38449;52.696;6.186;2023-10-08T12:24:34;7.75;;;1.77;;
52542;SDS011;38449;52.696;6.186;2023-10-08T12:27:01;4.35;;;1.85;;
52542;SDS011;38449;52.696;6.186;2023-10-08T12:29:28;5.40;;;1.60;;
52542;SDS011;38449;52.696;6.186;2023-10-08T12:31:58;7.53;;;1.63;;
52542;SDS011;38449;52.696;6.186;2023-10-08T12:34:25;6.32;;;1.98;;
52542;SDS011;38449;52.696;6.186;2023-10-08T12:36:55;6.78;;;1.88;;
52542;SDS011;38449;52.696;6.186;2023-10-08T12:39:21;3.85;;;1.70;;
52542;SDS011;38449;52.696;6.186;2023-10-08T12:41:52;5.68;;;1.90;;
52542;SDS011;38449;52.696;6.186;2023-10-08T12:44:19;6.57;;;2.10;;
52542;SDS011;38449;52.696;6.186;2023-10-08T12:46:45;7.20;;;1.50;;
52542;SDS011;38449;52.696;6.186;2023-10-08T12:49:14;5.20;;;1.60;;
52542;SDS011;38449;52.696;6.186;2023-10-08T12:51:40;3.95;;;1.63;;
52542;SDS011;38449;52.696;6.186;2023-10-08T12:54:11;4.65;;;1.58;;
52542;SDS011;38449;52.696;6.186;2023-10-08T12:56:38;5.05;;;1.85;;
52542;SDS011;38449;52.696;6.186;2023-10-08T12:59:10;3.58;;;1.40;;
52542;SDS011;38449;52.696;6.186;2023-10-08T13:01:55;2.72;;;1.30;;
52542;SDS011;38449;52.696;6.186;2023-10-08T13:04:21;4.72;;;1.67;;
52542;SDS011;38449;52.696;6.186;2023-10-08T13:06:54;5.78;;;1.60;;
52542;SDS011;38449;52.696;6.186;2023-10-08T13:09:26;4.72;;;1.80;;
52542;SDS011;38449;52.696;6.186;2023-10-08T13:11:56;4.05;;;1.50;;
52542;SDS011;38449;52.696;6.186;2023-10-08T13:14:25;6.03;;;1.55;;
52542;SDS011;38449;52.696;6.186;2023-10-08T13:16:51;8.77;;;1.60;;
52542;SDS011;38449;52.696;6.186;2023-10-08T13:19:20;5.32;;;1.30;;
52542;SDS011;38449;52.696;6.186;2023-10-08T13:21:48;3.80;;;1.42;;
52542;SDS011;38449;52.696;6.186;2023-10-08T13:24:18;3.83;;;1.45;;
52542;SDS011;38449;52.696;6.186;2023-10-08T13:26:44;4.78;;;1.40;;
52542;SDS011;38449;52.696;6.186;2023-10-08T13:29:14;5.93;;;1.98;;
52542;SDS011;38449;52.696;6.186;2023-10-08T13:31:40;7.88;;;2.25;;
52542;SDS011;38449;52.696;6.186;2023-10-08T13:34:06;4.38;;;1.58;;
52542;SDS011;38449;52.696;6.186;2023-10-08T13:36:38;5.10;;;2.13;;
52542;SDS011;38449;52.696;6.186;2023-10-08T13:39:05;7.75;;;1.77;;
52542;SDS011;38449;52.696;6.186;2023-10-08T13:41:36;3.55;;;1.30;;
52542;SDS011;38449;52.696;6.186;2023-10-08T13:44:04;4.78;;;1.63;;
52542;SDS011;38449;52.696;6.186;2023-10-08T13:46:33;6.57;;;1.65;;
52542;SDS011;38449;52.696;6.186;2023-10-08T13:49:04;6.03;;;1.60;;
52542;SDS011;38449;52.696;6.186;2023-10-08T13:51:31;4.15;;;1.50;;
52542;SDS011;38449;52.696;6.186;2023-10-08T13:54:00;6.00;;;1.65;;
52542;SDS011;38449;52.696;6.186;2023-10-08T13:56:28;5.57;;;1.70;;
52542;SDS011;38449;52.696;6.186;2023-10-08T13:58:58;5.63;;;1.98;;
52542;SDS011;38449;52.696;6.186;2023-10-08T14:01:38;6.70;;;1.90;;
52542;SDS011;38449;52.696;6.186;2023-10-08T14:04:06;5.32;;;1.85;;
52542;SDS011;38449;52.696;6.186;2023-10-08T14:06:33;7.03;;;1.80;;
52542;SDS011;38449;52.696;6.186;2023-10-08T14:09:01;8.18;;;1.77;;
52542;SDS011;38449;52.696;6.186;2023-10-08T14:11:33;4.32;;;1.65;;
52542;SDS011;38449;52.696;6.186;2023-10-08T14:13:59;4.40;;;1.98;;
52542;SDS011;38449;52.696;6.186;2023-10-08T14:16:28;5.20;;;1.70;;
52542;SDS011;38449;52.696;6.186;2023-10-08T14:18:58;4.88;;;1.58;;
52542;SDS011;38449;52.696;6.186;2023-10-08T14:21:25;4.60;;;1.77;;
52542;SDS011;38449;52.696;6.186;2023-10-08T14:24:02;5.38;;;2.00;;
52542;SDS011;38449;52.696;6.186;2023-10-08T14:26:29;5.88;;;1.85;;
52542;SDS011;38449;52.696;6.186;2023-10-08T14:29:02;6.10;;;1.85;;
52542;SDS011;38449;52.696;6.186;2023-10-08T14:31:41;3.65;;;1.70;;
52542;SDS011;38449;52.696;6.186;2023-10-08T14:34:10;3.38;;;1.80;;
52542;SDS011;38449;52.696;6.186;2023-10-08T14:36:45;4.10;;;1.73;;
52542;SDS011;38449;52.696;6.186;2023-10-08T14:39:31;4.50;;;1.90;;
52542;SDS011;38449;52.696;6.186;2023-10-08T14:42:17;7.50;;;1.95;;
52542;SDS011;38449;52.696;6.186;2023-10-08T14:45:02;5.10;;;1.70;;
52542;SDS011;38449;52.696;6.186;2023-10-08T14:47:29;5.13;;;1.70;;
52542;SDS011;38449;52.696;6.186;2023-10-08T14:49:56;4.45;;;1.58;;
52542;SDS011;38449;52.696;6.186;2023-10-08T14:52:22;5.00;;;1.70;;
52542;SDS011;38449;52.696;6.186;2023-10-08T14:54:50;5.03;;;1.65;;
52542;SDS011;38449;52.696;6.186;2023-10-08T14:57:17;6.18;;;1.80;;
52542;SDS011;38449;52.696;6.186;2023-10-08T14:59:44;4.32;;;1.50;;
52542;SDS011;38449;52.696;6.186;2023-10-08T15:02:10;4.28;;;1.60;;
52542;SDS011;38449;52.696;6.186;2023-10-08T15:04:37;4.97;;;2.17;;
52542;SDS011;38449;52.696;6.186;2023-10-08T15:07:05;6.72;;;1.83;;
52542;SDS011;38449;52.696;6.186;2023-10-08T15:09:36;4.85;;;2.15;;
52542;SDS011;38449;52.696;6.186;2023-10-08T15:12:05;6.03;;;2.10;;
52542;SDS011;38449;52.696;6.186;2023-10-08T15:14:35;5.05;;;3.63;;
52542;SDS011;38449;52.696;6.186;2023-10-08T15:17:04;4.10;;;2.63;;
52542;SDS011;38449;52.696;6.186;2023-10-08T15:19:31;4.97;;;2.05;;
52542;SDS011;38449;52.696;6.186;2023-10-08T15:22:00;3.67;;;1.65;;
52542;SDS011;38449;52.696;6.186;2023-10-08T15:24:26;5.22;;;1.60;;
52542;SDS011;38449;52.696;6.186;2023-10-08T15:26:53;4.22;;;1.60;;
52542;SDS011;38449;52.696;6.186;2023-10-08T15:29:20;4.72;;;2.30;;
52542;SDS011;38449;52.696;6.186;2023-10-08T15:31:47;4.85;;;1.70;;
52542;SDS011;38449;52.696;6.186;2023-10-08T15:34:15;5.70;;;1.83;;